sensor_id;sensor_type;location;lat;lon;timestamp;P1;durP1;ratioP1;P2;durP2;ratioP2
39452;SDS011;25154;-33.684;151.102;2023-02-14T00:03:24;9.25;;;1.67;;
39452;SDS011;25154;-33.684;151.102;2023-02-14T00:08:27;9.15;;;1.70;;
39452;SDS011;25154;-33.684;151.102;2023-02-14T00:13:29;7.80;;;1.60;;
39452;SDS011;25154;-33.684;151.102;2023-02-14T00:18:32;6.82;;;1.95;;
39452;SDS011;25154;-33.684;151.102;2023-02-14T00:23:53;8.32;;;1.85;;
39452;SDS011;25154;-33.684;151.102;2023-02-14T00:28:56;3.55;;;1.10;;
39452;SDS011;25154;-33.684;151.102;2023-02-14T00:33:59;2.55;;;0.93;;
39452;SDS011;25154;-33.684;151.102;2023-02-14T00:39:03;3.85;;;1.30;;
39452;SDS011;25154;-33.684;151.102;2023-02-14T00:44:08;4.00;;;1.30;;
39452;SDS011;25154;-33.684;151.102;2023-02-14T00:49:11;3.75;;;1.05;;
39452;SDS011;25154;-33.684;151.102;2023-02-14T00:54:14;4.75;;;1.20;;
39452;SDS011;25154;-33.684;151.102;2023-02-14T00:59:16;4.88;;;1.30;;
39452;SDS011;25154;-33.684;151.102;2023-02-14T01:04:19;6.63;;;1.50;;
39452;SDS011;25154;-33.684;151.102;2023-02-14T01:09:21;3.30;;;1.38;;
39452;SDS011;25154;-33.684;151.102;2023-02-14T01:14:23;3.47;;;1.30;;
39452;SDS011;25154;-33.684;151.102;2023-02-14T01:19:26;3.05;;;1.10;;
39452;SDS011;25154;-33.684;151.102;2023-02-14T01:24:28;6.53;;;1.75;;
39452;SDS011;25154;-33.684;151.102;2023-02-14T01:29:31;4.97;;;1.33;;
39452;SDS011;25154;-33.684;151.102;2023-02-14T01:34:34;3.97;;;1.40;;
39452;SDS011;25154;-33.684;151.102;2023-02-14T01:39:36;6.07;;;1.55;;
39452;SDS011;25154;-33.684;151.102;2023-02-14T01:49:45;5.13;;;1.30;;
39452;SDS011;25154;-33.684;151.102;2023-02-14T01:54:52;6.40;;;1.63;;
39452;SDS011;25154;-33.684;151.102;2023-02-14T01:59:59;5.18;;;1.30;;
39452;SDS011;25154;-33.684;151.102;2023-02-14T02:05:29;7.45;;;1.58;;
39452;SDS011;25154;-33.684;151.102;2023-02-14T02:10:32;8.07;;;2.33;;
39452;SDS011;25154;-33.684;151.102;2023-02-14T02:15:38;5.90;;;1.50;;
39452;SDS011;25154;-33.684;151.102;2023-02-14T02:21:03;5.50;;;1.40;;
39452;SDS011;25154;-33.684;151.102;2023-02-14T02:53:58;8.20;;;3.17;;
39452;SDS011;25154;-33.684;151.102;2023-02-14T02:59:10;6.53;;;1.33;;
39452;SDS011;25154;-33.684;151.102;2023-02-14T03:04:35;5.07;;;1.30;;
39452;SDS011;25154;-33.684;151.102;2023-02-14T03:09:56;12.10;;;1.50;;
39452;SDS011;25154;-33.684;151.102;2023-02-14T03:26:01;10.38;;;1.60;;
39452;SDS011;25154;-33.684;151.102;2023-02-14T03:31:34;13.98;;;1.90;;
39452;SDS011;25154;-33.684;151.102;2023-02-14T03:37:07;8.52;;;1.60;;
39452;SDS011;25154;-33.684;151.102;2023-02-14T03:47:44;13.55;;;2.33;;
39452;SDS011;25154;-33.684;151.102;2023-02-14T03:52:49;12.88;;;2.20;;
39452;SDS011;25154;-33.684;151.102;2023-02-14T04:03:05;9.40;;;1.75;;
39452;SDS011;25154;-33.684;151.102;2023-02-14T04:08:19;11.05;;;1.88;;
39452;SDS011;25154;-33.684;151.102;2023-02-14T04:13:23;11.13;;;1.73;;
39452;SDS011;25154;-33.684;151.102;2023-02-14T04:18:25;7.93;;;2.20;;
39452;SDS011;25154;-33.684;151.102;2023-02-14T04:23:45;15.00;;;2.00;;
39452;SDS011;25154;-33.684;151.102;2023-02-14T04:28:48;13.35;;;1.98;;
39452;SDS011;25154;-33.684;151.102;2023-02-14T04:33:50;11.00;;;2.08;;
39452;SDS011;25154;-33.684;151.102;2023-02-14T04:38:52;8.30;;;1.85;;
39452;SDS011;25154;-33.684;151.102;2023-02-14T04:43:55;11.48;;;1.70;;
39452;SDS011;25154;-33.684;151.102;2023-02-14T04:48:57;11.93;;;1.95;;
39452;SDS011;25154;-33.684;151.102;2023-02-14T04:53:59;9.88;;;1.60;;
39452;SDS011;25154;-33.684;151.102;2023-02-14T04:59:02;8.60;;;2.08;;
39452;SDS011;25154;-33.684;151.102;2023-02-14T05:04:05;6.72;;;2.08;;
39452;SDS011;25154;-33.684;151.102;2023-02-14T05:09:07;9.45;;;2.08;;
39452;SDS011;25154;-33.684;151.102;2023-02-14T05:14:13;9.15;;;1.98;;
39452;SDS011;25154;-33.684;151.102;2023-02-14T05:19:15;10.63;;;1.83;;
39452;SDS011;25154;-33.684;151.102;2023-02-14T05:24:31;13.52;;;2.25;;
39452;SDS011;25154;-33.684;151.102;2023-02-14T05:29:33;8.75;;;1.95;;
39452;SDS011;25154;-33.684;151.102;2023-02-14T05:34:35;9.25;;;1.60;;
39452;SDS011;25154;-33.684;151.102;2023-02-14T05:39:38;13.90;;;2.05;;
39452;SDS011;25154;-33.684;151.102;2023-02-14T05:44:40;8.13;;;2.17;;
39452;SDS011;25154;-33.684;151.102;2023-02-14T05:49:52;9.93;;;1.83;;
39452;SDS011;25154;-33.684;151.102;2023-02-14T05:55:00;10.50;;;1.70;;
39452;SDS011;25154;-33.684;151.102;2023-02-14T06:00:03;9.32;;;1.83;;
39452;SDS011;25154;-33.684;151.102;2023-02-14T06:05:07;9.75;;;1.90;;
39452;SDS011;25154;-33.684;151.102;2023-02-14T06:10:09;8.13;;;1.60;;
39452;SDS011;25154;-33.684;151.102;2023-02-14T06:15:12;9.10;;;1.90;;
39452;SDS011;25154;-33.684;151.102;2023-02-14T06:20:15;11.32;;;2.60;;
39452;SDS011;25154;-33.684;151.102;2023-02-14T06:25:17;13.80;;;2.65;;
39452;SDS011;25154;-33.684;151.102;2023-02-14T06:30:20;8.65;;;1.80;;
39452;SDS011;25154;-33.684;151.102;2023-02-14T06:35:22;8.75;;;1.98;;
39452;SDS011;25154;-33.684;151.102;2023-02-14T06:40:25;10.23;;;1.95;;
39452;SDS011;25154;-33.684;151.102;2023-02-14T06:45:30;8.52;;;1.67;;
39452;SDS011;25154;-33.684;151.102;2023-02-14T06:50:32;8.80;;;2.00;;
39452;SDS011;25154;-33.684;151.102;2023-02-14T06:55:35;12.80;;;2.20;;
39452;SDS011;25154;-33.684;151.102;2023-02-14T07:00:37;8.00;;;1.90;;
39452;SDS011;25154;-33.684;151.102;2023-02-14T07:05:42;11.05;;;2.00;;
39452;SDS011;25154;-33.684;151.102;2023-02-14T07:10:46;11.20;;;2.10;;
39452;SDS011;25154;-33.684;151.102;2023-02-14T07:15:48;13.27;;;1.88;;
39452;SDS011;25154;-33.684;151.102;2023-02-14T07:20:51;8.68;;;1.90;;
39452;SDS011;25154;-33.684;151.102;2023-02-14T07:25:54;9.63;;;1.90;;
39452;SDS011;25154;-33.684;151.102;2023-02-14T07:30:59;11.35;;;2.45;;
39452;SDS011;25154;-33.684;151.102;2023-02-14T07:36:03;10.77;;;2.67;;
39452;SDS011;25154;-33.684;151.102;2023-02-14T07:41:06;12.75;;;2.22;;
39452;SDS011;25154;-33.684;151.102;2023-02-14T07:46:09;10.75;;;1.98;;
39452;SDS011;25154;-33.684;151.102;2023-02-14T07:51:11;13.27;;;2.10;;
39452;SDS011;25154;-33.684;151.102;2023-02-14T07:56:14;9.60;;;2.63;;
39452;SDS011;25154;-33.684;151.102;2023-02-14T08:01:16;8.52;;;2.13;;
39452;SDS011;25154;-33.684;151.102;2023-02-14T08:06:20;12.73;;;2.35;;
39452;SDS011;25154;-33.684;151.102;2023-02-14T08:11:25;11.30;;;2.40;;
39452;SDS011;25154;-33.684;151.102;2023-02-14T08:16:46;10.60;;;2.10;;
39452;SDS011;25154;-33.684;151.102;2023-02-14T08:21:50;11.85;;;2.05;;
39452;SDS011;25154;-33.684;151.102;2023-02-14T08:26:53;9.85;;;1.83;;
39452;SDS011;25154;-33.684;151.102;2023-02-14T08:31:57;11.43;;;2.20;;
39452;SDS011;25154;-33.684;151.102;2023-02-14T08:37:01;10.45;;;2.13;;
39452;SDS011;25154;-33.684;151.102;2023-02-14T08:42:04;18.10;;;3.45;;
39452;SDS011;25154;-33.684;151.102;2023-02-14T08:47:07;16.02;;;4.90;;
39452;SDS011;25154;-33.684;151.102;2023-02-14T08:52:11;19.75;;;4.97;;
39452;SDS011;25154;-33.684;151.102;2023-02-14T08:57:13;13.20;;;2.70;;
39452;SDS011;25154;-33.684;151.102;2023-02-14T09:07:27;17.85;;;3.70;;
39452;SDS011;25154;-33.684;151.102;2023-02-14T09:12:30;11.80;;;2.83;;
39452;SDS011;25154;-33.684;151.102;2023-02-14T09:17:33;13.90;;;2.80;;
39452;SDS011;25154;-33.684;151.102;2023-02-14T09:22:37;11.88;;;2.50;;
39452;SDS011;25154;-33.684;151.102;2023-02-14T09:27:40;19.73;;;3.55;;
39452;SDS011;25154;-33.684;151.102;2023-02-14T09:32:45;13.65;;;2.60;;
39452;SDS011;25154;-33.684;151.102;2023-02-14T09:37:49;10.82;;;2.50;;
39452;SDS011;25154;-33.684;151.102;2023-02-14T09:43:27;15.38;;;3.20;;
39452;SDS011;25154;-33.684;151.102;2023-02-14T09:48:38;11.65;;;2.47;;
39452;SDS011;25154;-33.684;151.102;2023-02-14T09:53:55;11.75;;;3.40;;
39452;SDS011;25154;-33.684;151.102;2023-02-14T09:59:55;10.80;;;3.05;;
39452;SDS011;25154;-33.684;151.102;2023-02-14T10:20:32;13.05;;;3.42;;
39452;SDS011;25154;-33.684;151.102;2023-02-14T10:25:41;14.68;;;2.80;;
39452;SDS011;25154;-33.684;151.102;2023-02-14T10:30:53;14.98;;;2.72;;
39452;SDS011;25154;-33.684;151.102;2023-02-14T10:41:51;13.75;;;3.13;;
39452;SDS011;25154;-33.684;151.102;2023-02-14T10:58:35;15.45;;;3.70;;
39452;SDS011;25154;-33.684;151.102;2023-02-14T11:03:40;19.33;;;3.88;;
39452;SDS011;25154;-33.684;151.102;2023-02-14T11:08:55;12.27;;;2.97;;
39452;SDS011;25154;-33.684;151.102;2023-02-14T11:13:57;19.15;;;4.28;;
39452;SDS011;25154;-33.684;151.102;2023-02-14T11:24:35;20.58;;;3.63;;
39452;SDS011;25154;-33.684;151.102;2023-02-14T11:29:50;16.25;;;3.15;;
39452;SDS011;25154;-33.684;151.102;2023-02-14T11:34:53;9.23;;;2.90;;
39452;SDS011;25154;-33.684;151.102;2023-02-14T11:40:00;16.85;;;3.60;;
39452;SDS011;25154;-33.684;151.102;2023-02-14T11:45:05;12.65;;;3.22;;
39452;SDS011;25154;-33.684;151.102;2023-02-14T11:50:26;14.27;;;3.20;;
39452;SDS011;25154;-33.684;151.102;2023-02-14T11:55:30;13.02;;;2.83;;
39452;SDS011;25154;-33.684;151.102;2023-02-14T12:00:39;16.33;;;3.17;;
39452;SDS011;25154;-33.684;151.102;2023-02-14T12:05:51;12.80;;;3.00;;
39452;SDS011;25154;-33.684;151.102;2023-02-14T12:11:01;17.70;;;3.50;;
39452;SDS011;25154;-33.684;151.102;2023-02-14T12:16:25;18.17;;;3.20;;
39452;SDS011;25154;-33.684;151.102;2023-02-14T12:31:58;15.57;;;2.80;;
39452;SDS011;25154;-33.684;151.102;2023-02-14T13:04:57;21.73;;;3.70;;
39452;SDS011;25154;-33.684;151.102;2023-02-14T13:25:42;24.95;;;3.75;;
39452;SDS011;25154;-33.684;151.102;2023-02-14T13:31:04;15.00;;;2.97;;
39452;SDS011;25154;-33.684;151.102;2023-02-14T13:36:12;11.63;;;3.08;;
39452;SDS011;25154;-33.684;151.102;2023-02-14T13:41:16;15.15;;;3.22;;
39452;SDS011;25154;-33.684;151.102;2023-02-14T13:51:52;10.98;;;3.22;;
39452;SDS011;25154;-33.684;151.102;2023-02-14T14:07:31;11.88;;;3.28;;
39452;SDS011;25154;-33.684;151.102;2023-02-14T14:17:38;11.45;;;3.60;;
39452;SDS011;25154;-33.684;151.102;2023-02-14T14:22:49;14.18;;;3.58;;
39452;SDS011;25154;-33.684;151.102;2023-02-14T14:27:54;11.13;;;3.35;;
39452;SDS011;25154;-33.684;151.102;2023-02-14T14:33:13;22.75;;;3.88;;
39452;SDS011;25154;-33.684;151.102;2023-02-14T14:38:19;13.95;;;3.47;;
39452;SDS011;25154;-33.684;151.102;2023-02-14T14:43:26;17.20;;;3.80;;
39452;SDS011;25154;-33.684;151.102;2023-02-14T14:48:52;15.15;;;5.10;;
39452;SDS011;25154;-33.684;151.102;2023-02-14T14:53:57;15.32;;;3.72;;
39452;SDS011;25154;-33.684;151.102;2023-02-14T15:04:32;20.85;;;4.80;;
39452;SDS011;25154;-33.684;151.102;2023-02-14T15:09:35;8.00;;;3.60;;
39452;SDS011;25154;-33.684;151.102;2023-02-14T15:14:41;12.48;;;3.47;;
39452;SDS011;25154;-33.684;151.102;2023-02-14T15:19:51;11.23;;;4.07;;
39452;SDS011;25154;-33.684;151.102;2023-02-14T15:24:56;18.42;;;3.83;;
39452;SDS011;25154;-33.684;151.102;2023-02-14T15:30:01;12.70;;;3.88;;
39452;SDS011;25154;-33.684;151.102;2023-02-14T15:35:09;12.32;;;3.63;;
39452;SDS011;25154;-33.684;151.102;2023-02-14T15:40:26;10.25;;;3.35;;
39452;SDS011;25154;-33.684;151.102;2023-02-14T15:45:33;11.30;;;3.88;;
39452;SDS011;25154;-33.684;151.102;2023-02-14T15:50:41;11.45;;;3.85;;
39452;SDS011;25154;-33.684;151.102;2023-02-14T16:01:50;15.50;;;3.65;;
39452;SDS011;25154;-33.684;151.102;2023-02-14T16:12:32;13.23;;;3.80;;
39452;SDS011;25154;-33.684;151.102;2023-02-14T16:17:36;18.38;;;3.83;;
39452;SDS011;25154;-33.684;151.102;2023-02-14T16:22:39;15.10;;;3.83;;
39452;SDS011;25154;-33.684;151.102;2023-02-14T16:27:42;13.45;;;3.75;;
39452;SDS011;25154;-33.684;151.102;2023-02-14T16:32:49;20.73;;;4.03;;
39452;SDS011;25154;-33.684;151.102;2023-02-14T16:37:53;11.32;;;3.22;;
39452;SDS011;25154;-33.684;151.102;2023-02-14T16:42:55;20.55;;;4.00;;
39452;SDS011;25154;-33.684;151.102;2023-02-14T16:48:01;15.77;;;3.70;;
39452;SDS011;25154;-33.684;151.102;2023-02-14T16:53:05;17.02;;;4.00;;
39452;SDS011;25154;-33.684;151.102;2023-02-14T16:58:20;13.77;;;3.67;;
39452;SDS011;25154;-33.684;151.102;2023-02-14T17:03:28;18.50;;;3.42;;
39452;SDS011;25154;-33.684;151.102;2023-02-14T17:08:30;14.80;;;3.97;;
39452;SDS011;25154;-33.684;151.102;2023-02-14T17:13:32;27.02;;;4.00;;
39452;SDS011;25154;-33.684;151.102;2023-02-14T17:18:38;15.73;;;3.85;;
39452;SDS011;25154;-33.684;151.102;2023-02-14T17:23:43;18.83;;;3.88;;
39452;SDS011;25154;-33.684;151.102;2023-02-14T17:28:45;15.88;;;3.25;;
39452;SDS011;25154;-33.684;151.102;2023-02-14T17:33:47;12.63;;;3.03;;
39452;SDS011;25154;-33.684;151.102;2023-02-14T17:38:51;13.65;;;2.83;;
39452;SDS011;25154;-33.684;151.102;2023-02-14T17:43:54;16.40;;;2.78;;
39452;SDS011;25154;-33.684;151.102;2023-02-14T17:49:02;14.77;;;2.85;;
39452;SDS011;25154;-33.684;151.102;2023-02-14T17:54:06;11.32;;;2.97;;
39452;SDS011;25154;-33.684;151.102;2023-02-14T17:59:09;13.20;;;2.55;;
39452;SDS011;25154;-33.684;151.102;2023-02-14T18:04:11;14.55;;;2.60;;
39452;SDS011;25154;-33.684;151.102;2023-02-14T18:09:14;18.08;;;2.75;;
39452;SDS011;25154;-33.684;151.102;2023-02-14T18:14:19;12.88;;;2.60;;
39452;SDS011;25154;-33.684;151.102;2023-02-14T18:19:22;16.08;;;2.35;;
39452;SDS011;25154;-33.684;151.102;2023-02-14T18:24:24;12.18;;;2.75;;
39452;SDS011;25154;-33.684;151.102;2023-02-14T18:29:27;9.63;;;2.10;;
39452;SDS011;25154;-33.684;151.102;2023-02-14T18:34:34;15.50;;;2.20;;
39452;SDS011;25154;-33.684;151.102;2023-02-14T18:39:38;9.87;;;1.73;;
39452;SDS011;25154;-33.684;151.102;2023-02-14T18:44:41;11.05;;;1.90;;
39452;SDS011;25154;-33.684;151.102;2023-02-14T18:49:43;12.60;;;2.30;;
39452;SDS011;25154;-33.684;151.102;2023-02-14T18:54:47;10.57;;;2.10;;
39452;SDS011;25154;-33.684;151.102;2023-02-14T18:59:50;8.65;;;2.13;;
39452;SDS011;25154;-33.684;151.102;2023-02-14T19:04:53;10.20;;;2.08;;
39452;SDS011;25154;-33.684;151.102;2023-02-14T19:09:58;12.25;;;2.38;;
39452;SDS011;25154;-33.684;151.102;2023-02-14T19:15:03;12.80;;;2.10;;
39452;SDS011;25154;-33.684;151.102;2023-02-14T19:20:10;11.93;;;2.03;;
39452;SDS011;25154;-33.684;151.102;2023-02-14T19:25:14;11.63;;;1.73;;
39452;SDS011;25154;-33.684;151.102;2023-02-14T19:30:17;11.25;;;1.77;;
39452;SDS011;25154;-33.684;151.102;2023-02-14T19:35:20;10.80;;;2.15;;
39452;SDS011;25154;-33.684;151.102;2023-02-14T19:40:23;13.82;;;2.63;;
39452;SDS011;25154;-33.684;151.102;2023-02-14T19:45:25;12.25;;;2.15;;
39452;SDS011;25154;-33.684;151.102;2023-02-14T19:50:31;10.88;;;2.10;;
39452;SDS011;25154;-33.684;151.102;2023-02-14T19:55:34;8.68;;;1.85;;
39452;SDS011;25154;-33.684;151.102;2023-02-14T20:00:36;6.93;;;2.00;;
39452;SDS011;25154;-33.684;151.102;2023-02-14T20:05:38;14.63;;;2.30;;
39452;SDS011;25154;-33.684;151.102;2023-02-14T20:10:41;7.38;;;1.75;;
39452;SDS011;25154;-33.684;151.102;2023-02-14T20:15:43;10.50;;;2.08;;
39452;SDS011;25154;-33.684;151.102;2023-02-14T20:20:46;9.60;;;2.00;;
39452;SDS011;25154;-33.684;151.102;2023-02-14T20:26:03;9.75;;;1.70;;
39452;SDS011;25154;-33.684;151.102;2023-02-14T20:31:12;10.52;;;2.00;;
39452;SDS011;25154;-33.684;151.102;2023-02-14T20:36:16;11.07;;;2.00;;
39452;SDS011;25154;-33.684;151.102;2023-02-14T20:41:18;13.02;;;3.33;;
39452;SDS011;25154;-33.684;151.102;2023-02-14T20:46:21;5.32;;;1.65;;
39452;SDS011;25154;-33.684;151.102;2023-02-14T20:51:24;7.05;;;1.80;;
39452;SDS011;25154;-33.684;151.102;2023-02-14T20:56:27;9.95;;;1.80;;
39452;SDS011;25154;-33.684;151.102;2023-02-14T21:01:29;7.47;;;1.58;;
39452;SDS011;25154;-33.684;151.102;2023-02-14T21:06:32;12.85;;;1.80;;
39452;SDS011;25154;-33.684;151.102;2023-02-14T21:11:36;5.55;;;1.50;;
39452;SDS011;25154;-33.684;151.102;2023-02-14T21:16:38;8.05;;;1.67;;
39452;SDS011;25154;-33.684;151.102;2023-02-14T21:21:41;12.73;;;1.98;;
39452;SDS011;25154;-33.684;151.102;2023-02-14T21:26:43;11.32;;;1.55;;
39452;SDS011;25154;-33.684;151.102;2023-02-14T21:31:46;4.53;;;1.30;;
39452;SDS011;25154;-33.684;151.102;2023-02-14T21:36:48;5.03;;;1.25;;
39452;SDS011;25154;-33.684;151.102;2023-02-14T21:41:55;6.55;;;1.30;;
39452;SDS011;25154;-33.684;151.102;2023-02-14T21:46:59;7.38;;;1.55;;
39452;SDS011;25154;-33.684;151.102;2023-02-14T21:52:01;5.90;;;1.48;;
39452;SDS011;25154;-33.684;151.102;2023-02-14T21:57:03;6.20;;;1.38;;
39452;SDS011;25154;-33.684;151.102;2023-02-14T22:02:06;6.15;;;1.30;;
39452;SDS011;25154;-33.684;151.102;2023-02-14T22:07:11;8.98;;;1.30;;
39452;SDS011;25154;-33.684;151.102;2023-02-14T22:12:13;5.38;;;1.95;;
39452;SDS011;25154;-33.684;151.102;2023-02-14T22:17:15;5.68;;;1.40;;
39452;SDS011;25154;-33.684;151.102;2023-02-14T22:22:18;8.30;;;1.10;;
39452;SDS011;25154;-33.684;151.102;2023-02-14T22:27:20;7.13;;;1.38;;
39452;SDS011;25154;-33.684;151.102;2023-02-14T22:32:22;5.57;;;1.35;;
39452;SDS011;25154;-33.684;151.102;2023-02-14T22:37:25;4.53;;;1.27;;
39452;SDS011;25154;-33.684;151.102;2023-02-14T22:42:27;3.88;;;1.10;;
39452;SDS011;25154;-33.684;151.102;2023-02-14T22:47:30;7.72;;;1.42;;
39452;SDS011;25154;-33.684;151.102;2023-02-14T22:52:33;8.55;;;2.17;;
39452;SDS011;25154;-33.684;151.102;2023-02-14T22:57:36;3.83;;;1.30;;
39452;SDS011;25154;-33.684;151.102;2023-02-14T23:02:39;5.68;;;1.25;;
39452;SDS011;25154;-33.684;151.102;2023-02-14T23:07:42;4.10;;;1.20;;
39452;SDS011;25154;-33.684;151.102;2023-02-14T23:12:45;5.88;;;1.35;;
39452;SDS011;25154;-33.684;151.102;2023-02-14T23:18:09;4.22;;;1.40;;
39452;SDS011;25154;-33.684;151.102;2023-02-14T23:23:32;4.45;;;1.30;;
39452;SDS011;25154;-33.684;151.102;2023-02-14T23:28:36;6.63;;;1.83;;
39452;SDS011;25154;-33.684;151.102;2023-02-14T23:33:39;7.85;;;1.50;;
39452;SDS011;25154;-33.684;151.102;2023-02-14T23:38:43;4.82;;;1.55;;
39452;SDS011;25154;-33.684;151.102;2023-02-14T23:43:47;4.05;;;1.10;;
39452;SDS011;25154;-33.684;151.102;2023-02-14T23:48:51;8.45;;;1.95;;
39452;SDS011;25154;-33.684;151.102;2023-02-14T23:53:55;7.55;;;1.73;;
39452;SDS011;25154;-33.684;151.102;2023-02-14T23:58:57;4.22;;;1.63;;
